Leiding, Minnesota
Current Conditions -  °F | °C
As of 6:33 AM on Monday 20 Oct 2014 (Local Time) from KORB Reporting Station
Overcast Overcast  
Wind Chill: 39°   Ceiling: 2500
Heat Index: 43°   Visibility: 10mi
Dew Point: 39°   Wind: 6mph
Humidity: 87%   Direction: 310°NW
Pressure: 29.9"   Gusts: NA
Location:  48.1455°N, 92.8504°W
Report Text: KORB 201133Z AUTO 31005KT 10SM SCT019 BKN025 OVC032 06/04 A2990 RMK AO2
Loading
Personal Weather Stations






























Interactive Weather Map
Tropical Storm Tracking
New forecast layout! Learn more

10-Day Weather Forecast

Advertisements
Track Severe Weather on mobile